Time;durP1;ratioP1;P1;durP2;ratioP2;P2;SDS_P1;SDS_P2;PMS_P1;PMS_P2;Temp;Humidity;BMP_temperature;BMP_pressure;BME280_temperature;BME280_humidity;BME280_pressure;Samples;Min_cycle;Max_cycle;Signal;HPM_P1;HPM_P2
2022/12/25 00:01:21;;;;;;;2.50;1.05;;;;;;;9.57;75.16;99632.47;4470164;32;36052;-70
2022/12/25 00:03:50;;;;;;;0.40;0.40;;;;;;;10.00;73.09;99634.06;4469982;32;35183;-70
2022/12/25 00:06:19;;;;;;;0.40;0.40;;;;;;;9.87;74.02;99636.72;4469917;32;33420;-70
2022/12/25 00:08:47;;;;;;;0.40;0.40;;;;;;;9.81;74.61;99646.25;4470019;32;34014;-70
2022/12/25 00:11:18;;;;;;;0.70;0.70;;;;;;;10.04;72.99;99641.88;4469862;32;34884;-70
2022/12/25 00:13:47;;;;;;;0.75;0.75;;;;;;;10.22;72.58;99650.47;4469785;32;34266;-70
2022/12/25 00:16:18;;;;;;;0.70;0.70;;;;;;;10.11;73.03;99652.25;4469854;32;34108;-70
2022/12/25 00:18:47;;;;;;;0.73;0.73;;;;;;;10.02;73.53;99656.63;4469759;32;33895;-70
2022/12/25 00:21:16;;;;;;;0.40;0.40;;;;;;;9.86;73.73;99654.91;4469722;32;35113;-70
2022/12/25 00:23:44;;;;;;;0.40;0.40;;;;;;;9.94;73.55;99653.16;4469702;32;34374;-70
2022/12/25 00:26:14;;;;;;;0.40;0.40;;;;;;;10.15;73.15;99646.16;4469505;32;34471;-70
2022/12/25 00:28:44;;;;;;;0.50;0.50;;;;;;;9.57;75.19;99663.66;4469243;32;33886;-70
2022/12/25 00:31:14;;;;;;;0.65;0.65;;;;;;;9.60;74.68;99673.16;4455560;32;35172;-70
2022/12/25 00:33:45;;;;;;;0.50;0.50;;;;;;;9.94;74.21;99673.13;4455626;32;35325;-70
2022/12/25 00:36:14;;;;;;;0.40;0.40;;;;;;;9.98;73.80;99674.84;4469409;32;32686;-70
2022/12/25 00:38:43;;;;;;;0.52;0.52;;;;;;;9.76;74.48;99668.81;4469426;32;33912;-70
2022/12/25 00:42:17;;;;;;;0.95;0.95;;;;;;;9.89;74.03;99670.53;4470658;32;35768;-70
2022/12/25 00:44:07;;;;;;;0.40;0.40;;;;;;;10.21;72.98;99673.00;4471357;32;35153;-70
2022/12/25 00:46:35;;;;;;;0.40;0.40;;;;;;;10.20;72.83;99681.72;4471367;32;34230;-70
2022/12/25 00:49:04;;;;;;;0.30;0.30;;;;;;;10.22;72.54;99695.56;4471216;32;33968;-70
2022/12/25 00:51:33;;;;;;;0.50;0.50;;;;;;;10.01;73.17;99701.72;4471265;32;35184;-70
2022/12/25 00:54:01;;;;;;;0.50;0.50;;;;;;;10.13;73.53;99705.13;4471366;32;35298;-70
2022/12/25 00:56:28;;;;;;;0.60;0.60;;;;;;;9.99;73.99;99708.66;4471310;32;33519;-70
2022/12/25 00:59:00;;;;;;;3.08;1.45;;;;;;;10.02;73.92;99703.47;4471322;32;34091;-70
2022/12/25 01:01:28;;;;;;;0.32;0.32;;;;;;;10.00;74.18;99702.56;4457363;32;35144;-70
2022/12/25 01:03:57;;;;;;;1.25;1.25;;;;;;;9.92;74.24;99688.72;4471296;32;34100;-70
2022/12/25 01:06:25;;;;;;;0.47;0.47;;;;;;;9.57;75.03;99684.47;4471359;32;34158;-70
2022/12/25 01:11:40;;;;;;;0.40;0.40;;;;;;;9.90;74.27;99694.78;4471280;32;36007;-70
2022/12/25 01:14:08;;;;;;;0.50;0.50;;;;;;;9.83;74.82;99702.63;4471221;32;35137;-70
2022/12/25 01:16:36;;;;;;;0.40;0.40;;;;;;;9.89;74.18;99706.94;4457218;32;34557;-70
2022/12/25 01:19:05;;;;;;;0.40;0.40;;;;;;;9.85;74.63;99705.22;4471245;32;33786;-70
2022/12/25 01:21:33;;;;;;;0.45;0.45;;;;;;;9.75;74.35;99708.72;4471105;32;35021;-70
2022/12/25 01:24:02;;;;;;;0.40;0.40;;;;;;;10.02;73.71;99708.66;4471116;32;35040;-70
2022/12/25 01:26:30;;;;;;;0.50;0.50;;;;;;;9.86;74.15;99701.75;4471215;32;33446;-70
2022/12/25 01:28:58;;;;;;;0.40;0.40;;;;;;;10.26;72.53;99704.25;4470809;32;34009;-70
2022/12/25 01:31:26;;;;;;;0.73;0.73;;;;;;;9.88;74.06;99697.41;4471075;32;35876;-70
2022/12/25 01:33:54;;;;;;;0.30;0.30;;;;;;;9.96;73.33;99698.25;4471086;32;34525;-70
2022/12/25 01:36:25;;;;;;;0.60;0.60;;;;;;;9.72;74.30;99708.69;4471326;32;33643;-70
2022/12/25 01:38:53;;;;;;;0.40;0.40;;;;;;;10.33;72.05;99715.53;4471079;32;34840;-70
2022/12/25 01:41:24;;;;;;;0.50;0.50;;;;;;;9.97;73.45;99718.22;4470972;32;34885;-70
2022/12/25 01:44:01;;;;;;;0.57;0.57;;;;;;;10.13;72.81;99718.16;4470976;32;33651;-70
2022/12/25 01:46:30;;;;;;;0.40;0.40;;;;;;;10.24;72.47;99719.00;4471155;32;33574;-70
2022/12/25 01:49:23;;;;;;;0.75;0.70;;;;;;;10.26;72.03;99722.44;4470892;32;33915;-70
2022/12/25 01:51:59;;;;;;;0.40;0.40;;;;;;;9.83;73.30;99722.56;4464694;32;35906;-70
2022/12/25 01:54:36;;;;;;;0.40;0.40;;;;;;;9.65;74.86;99721.72;4471171;32;35203;-70
2022/12/25 01:57:08;;;;;;;0.40;0.40;;;;;;;9.77;74.02;99722.56;4470950;32;34368;-70
2022/12/25 01:59:36;;;;;;;0.40;0.40;;;;;;;9.98;72.79;99719.91;4456901;32;33865;-70
2022/12/25 02:02:04;;;;;;;0.40;0.40;;;;;;;10.21;72.31;99713.78;4470782;32;35146;-70
2022/12/25 02:04:42;;;;;;;0.40;0.40;;;;;;;10.25;71.79;99716.41;4470890;32;34389;-70
2022/12/25 02:07:16;;;;;;;0.40;0.40;;;;;;;10.04;72.44;99732.94;4457015;32;34437;-70
2022/12/25 02:09:45;;;;;;;0.40;0.40;;;;;;;10.28;71.99;99725.91;4470789;32;33947;-70
2022/12/25 02:12:27;;;;;;;0.85;0.85;;;;;;;10.19;72.44;99731.16;4470745;32;35949;-70
2022/12/25 02:14:58;;;;;;;0.40;0.40;;;;;;;10.52;70.90;99717.19;4456985;32;35239;-70
2022/12/25 02:17:37;;;;;;;0.40;0.40;;;;;;;10.23;72.06;99722.47;4457650;32;34408;-70
2022/12/25 02:20:21;;;;;;;2.70;1.40;;;;;;;10.41;70.95;99726.75;4456829;32;33989;-70
2022/12/25 02:23:23;;;;;;;0.80;0.80;;;;;;;10.73;69.96;99725.75;4456829;32;35207;-70
2022/12/25 02:25:55;;;;;;;0.80;0.80;;;;;;;10.48;70.69;99722.41;4456854;32;34535;-70
2022/12/25 02:28:40;;;;;;;0.30;0.30;;;;;;;10.56;69.95;99718.87;4470683;32;33533;-70
2022/12/25 02:31:17;;;;;;;0.40;0.40;;;;;;;10.53;70.28;99720.66;4438615;32;34015;-70
2022/12/25 02:34:13;;;;;;;0.40;0.40;;;;;;;10.06;71.68;99720.78;4438791;32;35872;-70
2022/12/25 02:36:50;;;;;;;11.48;1.50;;;;;;;9.99;72.36;99721.66;4438514;32;34273;-70
2022/12/25 02:42:14;;;;;;;0.57;0.57;;;;;;;10.01;71.85;99732.94;4439602;32;33913;-70
2022/12/25 03:07:11;;;;;;;0.50;0.50;;;;;;;9.74;73.72;99751.16;4438620;32;35117;-70
2022/12/25 03:12:48;;;;;;;0.43;0.43;;;;;;;9.76;73.32;99765.91;4438383;32;34237;-70
2022/12/25 03:18:14;;;;;;;0.40;0.40;;;;;;;9.75;73.59;99776.31;4439379;32;35057;-70
2022/12/25 03:29:05;;;;;;;0.62;0.62;;;;;;;9.66;73.59;99777.19;4446483;32;35060;-70
2022/12/25 03:31:44;;;;;;;0.50;0.50;;;;;;;9.68;73.06;99781.50;4470324;32;34425;-70
2022/12/25 04:36:47;;;;;;;0.40;0.40;;;;;;;9.18;71.83;99802.28;4438549;32;35048;-70
2022/12/25 04:39:15;;;;;;;0.35;0.35;;;;;;;9.11;71.85;99803.97;4438390;32;34452;-70
2022/12/25 04:41:43;;;;;;;0.43;0.43;;;;;;;9.29;71.04;99804.00;4438410;32;33009;-70
2022/12/25 04:44:12;;;;;;;0.50;0.50;;;;;;;8.82;72.42;99801.28;4438315;32;34304;-70
2022/12/25 04:46:40;;;;;;;2.62;2.42;;;;;;;8.28;74.06;99799.25;4438586;32;35671;-70
2022/12/25 04:49:08;;;;;;;0.50;0.50;;;;;;;9.53;69.23;99791.03;4438341;32;35316;-70
2022/12/25 04:51:36;;;;;;;0.40;0.40;;;;;;;8.72;70.55;99796.06;4438286;32;33676;-70
2022/12/25 04:54:04;;;;;;;0.52;0.52;;;;;;;8.76;71.11;99806.47;4438275;32;33880;-70
2022/12/25 04:56:33;;;;;;;0.50;0.50;;;;;;;8.72;71.36;99795.19;4438189;32;35127;-70
2022/12/25 04:59:05;;;;;;;0.40;0.40;;;;;;;7.82;75.55;99798.06;4438274;32;34428;-70
2022/12/25 05:01:33;;;;;;;0.40;0.40;;;;;;;7.80;75.63;99803.25;4437240;32;34305;-70
2022/12/25 05:04:01;;;;;;;0.50;0.50;;;;;;;7.69;76.70;99823.88;4438019;32;34669;-70
2022/12/25 05:06:29;;;;;;;0.70;0.70;;;;;;;7.77;76.54;99813.59;4437927;32;35092;-70
2022/12/25 05:08:57;;;;;;;0.93;0.90;;;;;;;7.48;78.32;99801.25;4438213;32;34426;-70
2022/12/25 05:11:26;;;;;;;0.50;0.50;;;;;;;7.71;77.28;99793.69;4438268;32;33476;-70
2022/12/25 05:13:56;;;;;;;0.65;0.65;;;;;;;7.91;76.94;99792.97;4438148;32;34696;-70
2022/12/25 05:16:25;;;;;;;0.40;0.40;;;;;;;8.21;75.53;99799.22;4437903;32;35159;-70
2022/12/25 05:18:53;;;;;;;0.40;0.40;;;;;;;8.79;73.37;99799.53;4437766;32;34560;-69
2022/12/25 05:21:21;;;;;;;0.40;0.40;;;;;;;8.30;76.01;99809.66;4437654;32;34278;-70
2022/12/25 05:23:50;;;;;;;0.40;0.40;;;;;;;8.28;76.06;99814.81;4437867;32;34592;-70
2022/12/25 05:26:24;;;;;;;0.52;0.52;;;;;;;8.36;75.68;99807.06;4438432;32;35020;-70
2022/12/25 05:28:53;;;;;;;0.40;0.40;;;;;;;8.35;75.88;99806.22;4444643;32;35224;-70
2022/12/25 05:31:21;;;;;;;0.50;0.50;;;;;;;8.81;74.00;99805.59;4471151;32;34249;-70
2022/12/25 05:33:50;;;;;;;0.50;0.50;;;;;;;8.94;72.91;99806.50;4471084;32;33937;-70
2022/12/25 05:36:18;;;;;;;0.40;0.40;;;;;;;9.01;73.14;99797.00;4457169;32;35037;-70
2022/12/25 05:38:46;;;;;;;0.80;0.60;;;;;;;9.17;72.21;99803.97;4470988;32;34437;-70
2022/12/25 05:41:14;;;;;;;0.47;0.47;;;;;;;8.68;72.84;99803.81;4470978;32;33194;-70
2022/12/25 05:43:42;;;;;;;0.60;0.60;;;;;;;8.43;74.72;99808.88;4471048;32;33875;-70
2022/12/25 05:46:12;;;;;;;1.00;1.00;;;;;;;9.06;71.78;99811.75;4470949;32;35140;-70
2022/12/25 05:48:40;;;;;;;0.45;0.45;;;;;;;8.36;73.84;99820.06;4470993;32;35211;-70
2022/12/25 05:51:10;;;;;;;0.50;0.50;;;;;;;8.27;74.86;99822.59;4471098;32;33601;-70
2022/12/25 05:53:39;;;;;;;0.40;0.40;;;;;;;8.58;73.98;99822.78;4471186;32;34619;-70
2022/12/25 05:56:08;;;;;;;0.32;0.32;;;;;;;8.95;71.85;99822.94;4470998;32;35073;-70
2022/12/25 05:58:38;;;;;;;0.95;0.95;;;;;;;8.75;72.12;99821.16;4470841;32;34440;-70
2022/12/25 06:01:10;;;;;;;0.40;0.40;;;;;;;8.64;72.36;99821.09;4470893;32;33428;-70
2022/12/25 06:03:41;;;;;;;6.43;3.72;;;;;;;8.45;72.89;99834.84;4470852;32;33997;-70
2022/12/25 06:06:11;;;;;;;0.50;0.50;;;;;;;8.52;73.16;99832.31;4470878;32;35953;-70
2022/12/25 06:08:40;;;;;;;1.60;1.50;;;;;;;8.19;73.51;99832.03;4470742;32;34520;-70
2022/12/25 06:11:08;;;;;;;0.40;0.40;;;;;;;8.41;72.83;99826.13;4456866;32;33296;-70
2022/12/25 06:13:36;;;;;;;2.55;2.00;;;;;;;8.19;72.72;99819.06;4470715;32;33919;-70
2022/12/25 06:16:06;;;;;;;0.60;0.60;;;;;;;7.88;74.36;99821.47;4470774;32;35187;-70
2022/12/25 06:18:36;;;;;;;0.77;0.77;;;;;;;8.33;72.97;99814.88;4470743;32;34629;-70
2022/12/25 06:21:08;;;;;;;0.40;0.40;;;;;;;8.20;73.20;99815.63;4470830;32;33487;-70
2022/12/25 06:23:36;;;;;;;0.50;0.50;;;;;;;8.21;73.43;99812.19;4470648;32;33960;-70
2022/12/25 06:26:07;;;;;;;0.50;0.50;;;;;;;6.93;76.29;99818.81;4456722;32;35628;-70
2022/12/25 06:28:35;;;;;;;0.50;0.50;;;;;;;6.37;79.13;99819.81;4470565;32;34475;-70
2022/12/25 06:31:08;;;;;;;0.50;0.50;;;;;;;6.94;76.26;99815.38;4470682;32;33804;-70
2022/12/25 06:33:37;;;;;;;0.40;0.40;;;;;;;7.17;75.88;99813.03;4470685;32;33751;-70
2022/12/25 06:36:10;;;;;;;0.50;0.50;;;;;;;6.95;76.90;99827.44;4470546;32;35056;-70
2022/12/25 06:38:39;;;;;;;0.50;0.50;;;;;;;7.37;74.52;99823.59;4469467;32;34478;-70
2022/12/25 06:41:13;;;;;;;0.50;0.50;;;;;;;7.17;75.15;99839.78;4470576;32;34303;-70
2022/12/25 06:43:42;;;;;;;0.50;0.50;;;;;;;6.63;75.62;99841.72;4470906;32;34011;-70
2022/12/25 06:46:11;;;;;;;0.50;0.50;;;;;;;6.30;77.76;99851.59;4470543;32;36046;-70
2022/12/25 06:48:40;;;;;;;0.85;0.85;;;;;;;6.22;79.62;99859.25;4470662;32;34578;-70
2022/12/25 06:51:08;;;;;;;0.70;0.70;;;;;;;6.46;78.87;99853.59;4470432;32;33470;-70
2022/12/25 06:53:36;;;;;;;0.65;0.65;;;;;;;6.31;80.40;99853.34;4470510;32;34699;-70
2022/12/25 06:56:15;;;;;;;1.92;1.83;;;;;;;6.37;82.22;99856.91;4470587;32;36147;-70
2022/12/25 06:58:48;;;;;;;0.60;0.60;;;;;;;6.41;83.08;99860.41;4470563;32;34415;-70
2022/12/25 07:01:26;;;;;;;0.80;0.80;;;;;;;6.08;81.89;99856.44;4470581;32;33518;-70
2022/12/25 07:04:01;;;;;;;2.72;2.55;;;;;;;6.99;77.22;99861.16;4470924;32;33912;-70
2022/12/25 07:06:29;;;;;;;2.55;2.35;;;;;;;7.07;76.92;99870.75;4443757;32;34179;-70
2022/12/25 07:08:58;;;;;;;1.55;1.45;;;;;;;6.88;81.63;99872.22;4470498;32;34628;-69
2022/12/25 07:11:26;;;;;;;0.50;0.50;;;;;;;7.58;81.89;99872.16;4470465;32;33746;-70
2022/12/25 07:13:54;;;;;;;0.50;0.50;;;;;;;8.21;79.03;99890.03;4456262;32;34127;-70
2022/12/25 07:16:22;;;;;;;1.02;1.02;;;;;;;8.40;76.72;99885.81;4470382;32;35896;-70
2022/12/25 07:18:51;;;;;;;0.50;0.50;;;;;;;8.80;73.54;99891.28;4470307;32;35309;-70
2022/12/25 07:21:20;;;;;;;0.90;0.52;;;;;;;8.98;73.06;99901.75;4470426;32;33711;-70
2022/12/25 07:23:49;;;;;;;0.60;0.60;;;;;;;9.13;71.88;99900.13;4470238;32;33888;-70
2022/12/25 07:26:17;;;;;;;0.40;0.40;;;;;;;8.59;75.19;99908.47;4470237;32;36045;-70
2022/12/25 07:28:45;;;;;;;0.82;0.82;;;;;;;8.84;74.47;99909.50;4456198;32;34531;-70
2022/12/25 07:31:15;;;;;;;0.50;0.50;;;;;;;8.78;74.81;99904.25;4470299;32;34207;-70
2022/12/25 07:33:44;;;;;;;0.70;0.70;;;;;;;8.89;75.59;99910.41;4470347;32;33884;-70
2022/12/25 07:36:13;;;;;;;0.50;0.50;;;;;;;8.56;76.47;99923.16;4455925;32;35385;-70
2022/12/25 07:38:41;;;;;;;1.73;1.02;;;;;;;8.94;74.81;99925.13;4470305;32;34441;-70
2022/12/25 07:41:12;;;;;;;1.10;1.10;;;;;;;8.83;76.23;99928.53;4470500;32;34138;-70
2022/12/25 07:43:40;;;;;;;0.50;0.50;;;;;;;9.83;72.02;99922.84;4470179;32;33159;-70
2022/12/25 07:46:08;;;;;;;0.50;0.50;;;;;;;8.99;73.31;99933.81;4470083;32;35912;-70
2022/12/25 07:48:37;;;;;;;0.50;0.50;;;;;;;9.04;73.61;99947.69;4469682;32;35360;-70
2022/12/25 07:51:08;;;;;;;1.90;1.80;;;;;;;9.60;70.82;99949.66;4470040;32;33425;-70
2022/12/25 07:53:37;;;;;;;2.08;1.87;;;;;;;8.67;74.10;99956.13;4470141;32;34813;-70
2022/12/25 07:56:07;;;;;;;1.00;1.00;;;;;;;9.02;72.97;99954.63;4469850;32;34925;-70
2022/12/25 07:58:35;;;;;;;3.40;1.00;;;;;;;8.32;75.30;99964.47;4469990;32;34513;-70
2022/12/25 08:01:06;;;;;;;0.43;0.43;;;;;;;9.89;69.18;99964.47;4470038;32;34133;-70
2022/12/25 08:03:34;;;;;;;1.15;1.05;;;;;;;10.11;68.78;99964.50;4469954;32;33873;-70
2022/12/25 08:06:05;;;;;;;1.45;1.35;;;;;;;10.47;67.41;99966.28;4469885;32;35963;-70
2022/12/25 08:08:35;;;;;;;0.40;0.40;;;;;;;10.36;68.49;99962.78;4469790;32;35327;-70
2022/12/25 08:11:08;;;;;;;0.57;0.57;;;;;;;10.89;66.69;99969.72;4469905;32;34346;-70
2022/12/25 08:13:37;;;;;;;0.70;0.70;;;;;;;10.80;66.58;99975.81;4469846;32;33804;-70
2022/12/25 08:16:07;;;;;;;0.40;0.40;;;;;;;11.43;64.88;99977.38;4470044;32;35057;-70
2022/12/25 08:18:37;;;;;;;0.40;0.40;;;;;;;11.71;64.48;99979.84;4469770;32;35264;-70
2022/12/25 08:21:08;;;;;;;0.60;0.60;;;;;;;12.13;62.65;99978.75;4469994;32;33575;-71
2022/12/25 08:23:38;;;;;;;0.82;0.82;;;;;;;11.36;66.25;99980.88;4469768;32;33929;-70
2022/12/25 08:26:08;;;;;;;1.67;1.37;;;;;;;11.88;64.20;99982.38;4469551;32;34910;-70
2022/12/25 08:28:36;;;;;;;2.53;1.20;;;;;;;12.46;61.37;99975.94;4469415;32;34539;-70
2022/12/25 08:31:09;;;;;;;1.75;1.17;;;;;;;12.29;61.83;99981.28;4469532;32;33564;-71
2022/12/25 08:33:38;;;;;;;0.95;0.90;;;;;;;12.60;61.62;99987.13;4469509;32;34714;-70
2022/12/25 08:36:08;;;;;;;1.80;1.70;;;;;;;13.36;59.30;99986.37;4469406;32;35001;-70
2022/12/25 08:38:37;;;;;;;0.82;0.80;;;;;;;13.53;57.68;99986.16;4469487;32;34411;-70
2022/12/25 08:41:05;;;;;;;0.60;0.60;;;;;;;13.58;57.71;99989.59;4469505;32;33476;-71
2022/12/25 08:43:34;;;;;;;1.40;1.35;;;;;;;14.12;56.53;99987.13;4469482;32;34054;-71
2022/12/25 08:46:02;;;;;;;1.05;1.05;;;;;;;14.47;55.74;99983.09;4469225;32;35176;-71
2022/12/25 08:48:31;;;;;;;1.20;1.10;;;;;;;14.61;53.54;99982.88;4455469;32;35266;-71
2022/12/25 08:51:00;;;;;;;2.25;1.62;;;;;;;15.12;51.76;99992.44;4469343;32;33619;-70
2022/12/25 08:53:28;;;;;;;1.85;1.65;;;;;;;14.72;52.71;99995.81;4469320;32;34037;-70
2022/12/25 08:55:59;;;;;;;1.27;1.17;;;;;;;14.93;52.88;99986.69;4469094;32;36007;-71
2022/12/25 08:58:28;;;;;;;0.65;0.65;;;;;;;14.98;53.80;99990.97;4469168;32;34554;-71
2022/12/25 09:00:56;;;;;;;1.20;1.10;;;;;;;16.30;48.62;99983.84;4469443;32;33700;-71
2022/12/25 09:03:24;;;;;;;2.50;1.30;;;;;;;16.09;50.47;99993.09;4471337;32;33900;-70
2022/12/25 09:05:53;;;;;;;1.58;1.48;;;;;;;17.31;46.65;99998.81;4471527;32;35196;-71
2022/12/25 09:08:21;;;;;;;0.90;0.90;;;;;;;16.72;48.72;100004.72;4471185;32;35196;-71
2022/12/25 09:10:49;;;;;;;1.67;1.58;;;;;;;17.06;47.26;99998.63;4471435;32;34238;-70
2022/12/25 09:13:18;;;;;;;0.90;0.90;;;;;;;16.12;50.86;100001.75;4471249;32;33956;-71
2022/12/25 09:15:46;;;;;;;1.50;1.40;;;;;;;16.54;49.48;99994.69;4471175;32;35978;-71
2022/12/25 09:18:14;;;;;;;1.73;1.10;;;;;;;16.30;50.17;99999.63;4471194;32;35166;-71
2022/12/25 09:20:42;;;;;;;0.52;0.52;;;;;;;16.61;49.64;99991.00;4471220;32;33354;-71
2022/12/25 09:23:10;;;;;;;0.75;0.75;;;;;;;17.80;46.33;99992.09;4471153;32;33785;-71
2022/12/25 09:25:43;;;;;;;0.32;0.32;;;;;;;18.15;45.84;99989.34;4463163;32;254963;-71
2022/12/25 09:28:12;;;;;;;1.80;1.65;;;;;;;17.29;47.39;99983.97;4471421;32;35273;-71
2022/12/25 09:30:40;;;;;;;0.85;0.85;;;;;;;16.99;48.62;99982.12;4471001;32;34314;-71
2022/12/25 09:33:08;;;;;;;0.30;0.30;;;;;;;17.11;47.54;99983.56;4470977;32;34042;-71
2022/12/25 09:35:36;;;;;;;0.30;0.30;;;;;;;16.63;49.76;99989.19;4471005;32;35137;-71
2022/12/25 09:38:04;;;;;;;0.50;0.50;;;;;;;16.77;49.54;99984.44;4471042;32;34868;-71
2022/12/25 09:40:32;;;;;;;1.40;1.30;;;;;;;16.77;49.39;99992.31;4471126;32;33506;-71
2022/12/25 09:43:01;;;;;;;0.20;0.20;;;;;;;16.85;49.72;99989.50;4471104;32;34699;-71
2022/12/25 09:45:36;;;;;;;1.35;1.00;;;;;;;16.89;47.89;99992.94;4470965;32;35041;-71
2022/12/25 09:48:05;;;;;;;0.68;0.62;;;;;;;17.01;49.15;99996.13;4471047;32;34567;-71
2022/12/25 09:50:49;;;;;;;0.50;0.50;;;;;;;17.47;48.45;99994.00;4471037;32;33682;-71
2022/12/25 09:53:21;;;;;;;0.30;0.30;;;;;;;18.51;44.48;99995.22;4457049;32;34066;-71
2022/12/25 09:56:03;;;;;;;0.20;0.20;;;;;;;19.64;42.70;100000.09;4457054;32;35057;-71
2022/12/25 09:58:32;;;;;;;0.85;0.60;;;;;;;21.19;39.96;99994.72;4470850;32;34508;-71
2022/12/25 10:01:28;;;;;;;0.40;0.40;;;;;;;21.51;37.88;100003.94;4456964;32;33426;-72
2022/12/25 10:04:19;;;;;;;0.30;0.30;;;;;;;21.38;38.30;100003.56;4471006;32;34842;-72
2022/12/25 10:06:47;;;;;;;0.60;0.60;;;;;;;21.96;38.58;100000.06;4470863;32;35133;-71
2022/12/25 10:09:31;;;;;;;1.33;1.23;;;;;;;22.62;35.40;99987.22;4470790;32;34448;-72
2022/12/25 10:12:30;;;;;;;0.20;0.20;;;;;;;23.80;34.21;99991.66;4456642;32;33520;-71
2022/12/25 10:15:20;;;;;;;0.70;0.65;;;;;;;24.89;32.53;99992.56;4470806;32;33949;-71
2022/12/25 10:18:20;;;;;;;0.98;0.95;;;;;;;25.01;31.64;99975.00;4470739;32;35851;-71
2022/12/25 10:20:55;;;;;;;0.50;0.50;;;;;;;26.00;31.37;99972.41;4470719;32;35314;-71
2022/12/25 10:23:37;;;;;;;0.22;0.22;;;;;;;25.94;29.36;99975.47;4456916;32;34242;-71
2022/12/25 10:26:17;;;;;;;0.88;0.75;;;;;;;26.63;29.28;99973.62;4456856;32;33986;-72
2022/12/25 10:28:50;;;;;;;0.40;0.40;;;;;;;27.27;27.75;99971.97;4470465;32;35924;-72
2022/12/25 10:31:24;;;;;;;0.55;0.55;;;;;;;26.94;28.68;99971.53;4456821;32;34132;-71
2022/12/25 10:33:53;;;;;;;1.25;0.88;;;;;;;26.42;28.34;99961.66;4470755;32;33368;-72
2022/12/25 10:36:27;;;;;;;0.40;0.40;;;;;;;26.81;28.31;99968.84;4470800;32;34738;-72
2022/12/25 10:38:56;;;;;;;0.80;0.80;;;;;;;26.43;28.33;99966.91;4470703;32;35157;-71
2022/12/25 10:41:49;;;;;;;2.37;1.70;;;;;;;27.04;28.80;99967.25;4470558;32;34579;-72
2022/12/25 10:44:19;;;;;;;3.72;0.95;;;;;;;26.58;28.01;99969.53;4470709;32;33944;-72
2022/12/25 10:46:53;;;;;;;0.45;0.45;;;;;;;26.26;28.42;99967.16;4456997;32;33328;-72
2022/12/25 10:49:24;;;;;;;4.03;1.00;;;;;;;25.05;30.43;99960.53;4456394;32;35858;-71
2022/12/25 10:51:53;;;;;;;10.55;0.85;;;;;;;26.34;28.50;99950.66;4456687;32;34438;-72
2022/12/25 10:54:28;;;;;;;0.47;0.47;;;;;;;26.22;28.41;99963.00;4470556;32;33638;-72
2022/12/25 10:56:59;;;;;;;0.55;0.43;;;;;;;25.87;29.90;99961.66;4470629;32;33918;-72
2022/12/25 10:59:30;;;;;;;0.28;0.28;;;;;;;25.53;29.95;99966.44;4470578;32;35045;-71
2022/12/25 11:02:09;;;;;;;0.62;0.60;;;;;;;27.39;28.59;99961.28;4470584;32;34561;-72
2022/12/25 11:04:37;;;;;;;0.40;0.40;;;;;;;28.02;26.79;99958.56;4456719;32;34406;-73
2022/12/25 11:07:23;;;;;;;0.52;0.52;;;;;;;28.96;25.55;99948.84;4470442;32;34756;-72
2022/12/25 11:10:15;;;;;;;0.30;0.30;;;;;;;27.06;28.28;99948.44;4456514;32;35332;-71
2022/12/25 11:12:44;;;;;;;0.50;0.47;;;;;;;27.08;28.63;99940.31;4456394;32;34325;-72
2022/12/25 11:15:41;;;;;;;0.32;0.32;;;;;;;26.98;28.01;99935.59;4470449;32;33411;-72
2022/12/25 11:18:25;;;;;;;0.65;0.65;;;;;;;26.35;29.09;99928.31;4470473;32;34019;-72
2022/12/25 11:20:57;;;;;;;0.20;0.20;;;;;;;27.23;27.78;99932.06;4470343;32;35107;-72
2022/12/25 11:23:28;;;;;;;0.85;0.82;;;;;;;26.12;29.67;99925.41;4469816;32;35088;-73
2022/12/25 11:26:07;;;;;;;0.75;0.75;;;;;;;26.81;28.63;99923.44;4470503;32;33440;-72
2022/12/25 11:28:38;;;;;;;0.55;0.50;;;;;;;25.45;29.09;99928.78;4470222;32;33916;-72
2022/12/25 11:31:09;;;;;;;0.28;0.28;;;;;;;24.52;30.99;99929.97;4456311;32;35035;-72
2022/12/25 11:34:09;;;;;;;0.30;0.30;;;;;;;23.34;30.08;99925.03;4470168;32;34440;-72
2022/12/25 11:36:48;;;;;;;0.30;0.30;;;;;;;23.00;32.27;99921.50;4470235;32;34514;-72
2022/12/25 11:39:33;;;;;;;0.30;0.30;;;;;;;22.67;31.67;99924.13;4456300;32;34764;-72
2022/12/25 11:42:38;;;;;;;0.55;0.55;;;;;;;23.65;32.31;99924.22;4470285;32;35034;-72
2022/12/25 11:45:12;;;;;;;0.32;0.32;;;;;;;23.34;32.43;99919.72;4433329;32;35168;-71
2022/12/25 11:47:56;;;;;;;1.98;0.50;;;;;;;24.00;32.17;99918.75;4470257;32;33427;-72
2022/12/25 11:50:43;;;;;;;2.08;1.15;;;;;;;24.54;31.60;99928.09;4470170;32;33585;-72
2022/12/25 11:53:19;;;;;;;0.20;0.20;;;;;;;23.81;33.75;99934.03;4456024;32;35848;-72
2022/12/25 11:56:15;;;;;;;0.77;0.77;;;;;;;23.99;30.62;99918.81;4456372;32;34499;-72
2022/12/25 11:58:46;;;;;;;0.80;0.57;;;;;;;24.54;29.52;99912.13;4449232;32;33188;-71
2022/12/25 12:01:18;;;;;;;2.40;1.83;;;;;;;23.45;32.64;99916.47;4470018;32;33793;-72
2022/12/25 12:03:46;;;;;;;0.37;0.37;;;;;;;24.25;30.68;99917.31;4469949;32;34620;-72
2022/12/25 12:06:23;;;;;;;0.73;0.73;;;;;;;23.82;30.93;99914.44;4469900;32;34709;-72
2022/12/25 12:09:01;;;;;;;0.80;0.80;;;;;;;24.07;30.59;99907.75;4469977;32;33574;-71
2022/12/25 12:11:45;;;;;;;0.75;0.70;;;;;;;23.16;31.23;99904.78;4456071;32;34127;-71
2022/12/25 12:14:26;;;;;;;0.50;0.50;;;;;;;23.01;31.42;99909.94;4469786;32;34859;-71
2022/12/25 12:16:54;;;;;;;0.60;0.60;;;;;;;22.94;34.13;99905.88;4469819;32;34470;-72
2022/12/25 12:19:26;;;;;;;0.70;0.70;;;;;;;23.23;32.06;99912.34;4469760;32;34105;-71
2022/12/25 12:21:59;;;;;;;0.75;0.57;;;;;;;21.16;34.99;99920.69;4469645;32;33872;-71
2022/12/25 12:24:39;;;;;;;0.70;0.40;;;;;;;20.33;35.32;99918.97;4469672;32;35161;-72
2022/12/25 12:27:36;;;;;;;9.13;1.17;;;;;;;21.04;34.60;99913.34;4469558;32;34483;-71
2022/12/25 12:30:05;;;;;;;;;;;;;;;21.05;35.04;99917.69;4469801;32;33531;-71
2022/12/25 12:32:33;;;;;;;0.70;0.70;;;;;;;20.35;35.12;99922.44;4455751;32;34287;-71
2022/12/25 12:35:16;;;;;;;0.65;0.65;;;;;;;19.18;38.08;99919.06;4469793;32;35058;-72
2022/12/25 12:38:14;;;;;;;1.83;1.08;;;;;;;19.26;39.65;99924.91;4457816;32;34344;-71
2022/12/25 12:41:03;;;;;;;0.30;0.30;;;;;;;19.74;38.87;99915.22;4471542;32;33345;-71
2022/12/25 12:43:43;;;;;;;0.40;0.40;;;;;;;18.50;41.69;99913.50;4457503;32;33961;-71
2022/12/25 12:46:28;;;;;;;0.45;0.45;;;;;;;17.74;43.07;99922.97;4471262;32;35075;-71
2022/12/25 12:49:07;;;;;;;3.50;2.05;;;;;;;17.34;45.03;99916.25;4458121;32;35267;-71
2022/12/25 12:51:36;;;;;;;18.25;2.42;;;;;;;16.70;46.33;99914.50;4471319;32;34188;-72
2022/12/25 12:54:22;;;;;;;1.08;1.08;;;;;;;16.10;48.90;99922.13;4471138;32;34172;-72
2022/12/25 12:57:01;;;;;;;0.47;0.47;;;;;;;15.58;51.05;99923.28;4457490;32;35024;-72
2022/12/25 12:59:43;;;;;;;0.37;0.37;;;;;;;15.33;52.57;99931.69;4471357;32;35231;-71
2022/12/25 13:02:33;;;;;;;1.42;1.20;;;;;;;15.11;53.72;99928.62;4457916;32;33427;-72
2022/12/25 13:05:25;;;;;;;0.37;0.37;;;;;;;14.75;55.53;99932.81;4468152;32;33621;-69
2022/12/25 13:08:32;;;;;;;0.70;0.70;;;;;;;14.25;57.44;99930.16;4467282;32;35445;-70
2022/12/25 13:11:18;;;;;;;0.88;0.88;;;;;;;13.48;59.35;99943.50;4470651;32;34731;-71
2022/12/25 13:13:47;;;;;;;1.13;1.10;;;;;;;13.90;57.91;99933.31;4457254;32;33886;-70
2022/12/25 13:16:22;;;;;;;0.57;0.57;;;;;;;14.13;57.89;99930.34;4470870;32;33749;-71
2022/12/25 13:18:51;;;;;;;0.55;0.55;;;;;;;14.49;56.48;99923.66;4471108;32;35862;-72
2022/12/25 13:21:24;;;;;;;0.73;0.73;;;;;;;14.27;57.39;99920.50;4471099;32;35341;-71
2022/12/25 13:24:19;;;;;;;0.50;0.50;;;;;;;14.46;56.39;99922.84;4457260;32;33702;-71
2022/12/25 13:26:48;;;;;;;4.35;1.45;;;;;;;13.98;57.25;99923.63;4471113;32;33982;-71
2022/12/25 13:29:36;;;;;;;2.85;2.08;;;;;;;14.47;56.06;99920.19;4470945;32;35148;-71
2022/12/25 13:32:06;;;;;;;2.17;1.75;;;;;;;14.14;56.46;99919.00;4471094;32;35250;-71
2022/12/25 13:34:40;;;;;;;0.90;0.90;;;;;;;14.36;56.94;99927.34;4457025;32;33525;-72
2022/12/25 13:37:12;;;;;;;3.75;1.30;;;;;;;14.07;58.13;99920.84;4471232;32;34640;-71
2022/12/25 13:39:50;;;;;;;0.95;0.82;;;;;;;14.28;57.69;99926.63;4457170;32;34900;-71
2022/12/25 13:42:19;;;;;;;;;;;;;;;14.54;56.96;99923.56;4471376;32;34409;-71
2022/12/25 13:45:04;;;;;;;0.40;0.40;;;;;;;14.15;57.97;99924.22;4457185;32;33269;-70
2022/12/25 13:47:36;;;;;;;0.65;0.65;;;;;;;13.91;58.81;99925.47;4470540;32;32894;-70
2022/12/25 13:50:15;;;;;;;0.73;0.73;;;;;;;13.95;59.11;99928.88;4470973;32;35069;-70